Time;durP1;ratioP1;P1;durP2;ratioP2;P2;SDS_P1;SDS_P2;PMS_P1;PMS_P2;Temp;Humidity;BMP_temperature;BMP_pressure;BME280_temperature;BME280_humidity;BME280_pressure;Samples;Min_cycle;Max_cycle;Signal;HPM_P1;HPM_P2
2022/12/09 00:00:53;;;;;;;14.17;9.33;;;2.00;99.90;;;;;;5025793;28;20960;-67
2022/12/09 00:03:20;;;;;;;13.73;8.53;;;2.00;99.90;;;;;;5030023;28;20207;-67
2022/12/09 00:05:49;;;;;;;15.03;8.93;;;2.00;99.90;;;;;;5031793;28;20204;-66
2022/12/09 00:08:16;;;;;;;18.30;8.60;;;2.00;99.90;;;;;;5000762;28;20215;-67
2022/12/09 00:10:43;;;;;;;13.63;8.47;;;2.10;99.90;;;;;;5040211;28;20235;-67
2022/12/09 00:13:10;;;;;;;15.47;8.70;;;2.00;99.90;;;;;;5029749;28;20223;-67
2022/12/09 00:15:42;;;;;;;14.83;9.70;;;2.10;99.90;;;;;;5028170;28;20212;-66
2022/12/09 00:18:09;;;;;;;14.43;9.00;;;2.10;99.90;;;;;;5025684;28;20285;-67
2022/12/09 00:20:36;;;;;;;15.53;8.57;;;2.10;99.90;;;;;;5017685;28;20210;-67
2022/12/09 00:23:02;;;;;;;14.47;8.63;;;2.10;99.90;;;;;;5032182;28;20258;-67
2022/12/09 00:25:29;;;;;;;12.27;8.33;;;2.10;99.90;;;;;;5013658;28;20220;-67
2022/12/09 00:27:56;;;;;;;15.20;7.73;;;2.10;99.90;;;;;;5032560;28;20215;-67
2022/12/09 00:30:25;;;;;;;10.33;7.33;;;2.10;99.90;;;;;;5029406;28;20203;-67
2022/12/09 00:32:53;;;;;;;13.57;8.13;;;2.10;99.90;;;;;;5025865;28;20198;-67
2022/12/09 00:35:20;;;;;;;13.63;7.40;;;2.10;99.90;;;;;;5020552;28;20262;-67
2022/12/09 00:37:46;;;;;;;11.23;7.03;;;2.10;99.90;;;;;;5040672;28;20239;-67
2022/12/09 00:40:14;;;;;;;10.20;7.60;;;2.10;99.90;;;;;;4999094;28;20208;-68
2022/12/09 00:42:41;;;;;;;14.00;7.83;;;2.10;99.90;;;;;;5043723;28;20197;-66
2022/12/09 00:45:08;;;;;;;13.63;8.17;;;2.20;99.90;;;;;;5026695;28;20215;-67
2022/12/09 00:47:35;;;;;;;12.57;7.93;;;2.20;99.90;;;;;;5021097;28;20964;-67
2022/12/09 00:50:06;;;;;;;11.27;7.77;;;2.20;99.90;;;;;;5045032;28;22823;-67
2022/12/09 00:52:32;;;;;;;14.40;8.10;;;2.20;99.90;;;;;;5029033;28;20227;-67
2022/12/09 00:54:59;;;;;;;13.00;7.63;;;2.20;99.90;;;;;;5032969;28;20208;-67
2022/12/09 00:57:26;;;;;;;9.83;7.10;;;2.20;99.90;;;;;;5018915;28;20260;-67
2022/12/09 00:59:53;;;;;;;10.73;7.57;;;2.20;99.90;;;;;;5038190;28;20205;-67
2022/12/09 01:02:20;;;;;;;11.17;7.17;;;2.20;99.90;;;;;;5042619;28;20203;-67
2022/12/09 01:04:49;;;;;;;12.63;7.63;;;2.20;99.90;;;;;;5032850;28;20211;-67
2022/12/09 01:07:18;;;;;;;9.67;7.27;;;2.20;99.90;;;;;;5022366;28;20576;-67
2022/12/09 01:09:44;;;;;;;11.93;7.23;;;2.20;99.90;;;;;;5029169;28;20215;-68
2022/12/09 01:12:11;;;;;;;9.83;6.97;;;2.20;99.90;;;;;;5009137;28;20218;-67
2022/12/09 01:14:38;;;;;;;14.20;8.23;;;2.10;99.90;;;;;;5026321;28;20239;-67
2022/12/09 01:17:05;;;;;;;11.37;7.40;;;2.20;99.90;;;;;;5047027;28;20232;-67
2022/12/09 01:19:32;;;;;;;9.87;7.30;;;2.20;99.90;;;;;;5028745;28;20209;-67
2022/12/09 01:21:59;;;;;;;17.27;6.90;;;2.20;99.90;;;;;;5023136;28;20236;-68
2022/12/09 01:24:27;;;;;;;12.73;6.73;;;2.20;99.90;;;;;;5043087;28;20200;-67
2022/12/09 01:26:54;;;;;;;10.43;7.03;;;2.20;99.90;;;;;;5006482;28;20209;-68
2022/12/09 01:29:21;;;;;;;10.47;6.43;;;2.10;99.90;;;;;;5046471;28;20219;-67
2022/12/09 01:31:48;;;;;;;12.57;6.77;;;2.10;99.90;;;;;;5032092;28;20204;-67
2022/12/09 01:34:14;;;;;;;13.27;6.40;;;2.00;99.90;;;;;;5046278;28;20745;-67
2022/12/09 01:36:41;;;;;;;8.90;6.10;;;2.00;99.90;;;;;;5013040;28;22312;-67
2022/12/09 01:39:09;;;;;;;10.60;5.57;;;2.00;99.90;;;;;;5043751;28;20209;-67
2022/12/09 01:41:37;;;;;;;11.83;6.63;;;2.00;99.90;;;;;;5004770;28;20967;-67
2022/12/09 01:44:15;;;;;;;8.53;5.90;;;1.90;99.90;;;;;;5042286;28;20200;-67
2022/12/09 01:46:42;;;;;;;8.67;6.07;;;1.80;99.90;;;;;;5035207;28;20238;-67
2022/12/09 01:49:14;;;;;;;8.33;6.00;;;1.90;99.90;;;;;;5045119;28;20204;-67
2022/12/09 01:51:43;;;;;;;7.50;5.87;;;1.80;99.90;;;;;;5029612;28;20208;-67
2022/12/09 01:54:09;;;;;;;7.57;5.80;;;1.80;99.90;;;;;;5026073;28;20205;-67
2022/12/09 01:56:40;;;;;;;11.20;6.33;;;1.70;99.90;;;;;;5008695;28;20216;-68
2022/12/09 01:59:10;;;;;;;13.27;6.47;;;1.70;99.90;;;;;;5043756;28;20212;-67
2022/12/09 02:01:38;;;;;;;10.47;5.63;;;1.70;99.90;;;;;;5038275;28;20528;-67
2022/12/09 02:04:05;;;;;;;11.87;6.57;;;1.70;99.90;;;;;;5043643;28;20211;-67
2022/12/09 02:06:32;;;;;;;9.47;6.23;;;1.70;99.90;;;;;;5030285;28;20230;-67
2022/12/09 02:08:59;;;;;;;7.93;5.27;;;1.60;99.90;;;;;;5027676;28;20207;-67
2022/12/09 02:11:35;;;;;;;9.93;5.53;;;1.50;99.90;;;;;;5020732;28;20209;-67
2022/12/09 02:14:10;;;;;;;11.73;5.93;;;1.60;99.90;;;;;;5036634;28;20574;-67
2022/12/09 02:16:45;;;;;;;10.67;6.13;;;1.50;99.90;;;;;;5041243;28;20199;-67
2022/12/09 02:19:25;;;;;;;8.63;5.53;;;1.50;99.90;;;;;;5034889;28;20611;-67
2022/12/09 02:21:57;;;;;;;9.47;6.40;;;1.40;99.90;;;;;;5030282;28;20228;-67
2022/12/09 02:24:33;;;;;;;9.37;5.97;;;1.50;99.90;;;;;;5022223;28;20561;-66
2022/12/09 02:27:07;;;;;;;8.47;5.80;;;1.40;99.90;;;;;;5011200;28;20218;-67
2022/12/09 02:29:57;;;;;;;10.00;6.10;;;1.40;99.90;;;;;;5041330;28;20274;-68
2022/12/09 02:32:58;;;;;;;7.33;5.67;;;1.50;99.90;;;;;;5042897;28;20237;-67
2022/12/09 02:35:32;;;;;;;9.53;5.63;;;1.50;99.90;;;;;;5031954;28;20972;-67
2022/12/09 02:38:06;;;;;;;11.33;7.10;;;1.50;99.90;;;;;;5027323;28;20248;-67
2022/12/09 02:40:38;;;;;;;9.93;6.50;;;1.60;99.90;;;;;;5024293;28;20226;-67
2022/12/09 02:43:08;;;;;;;8.80;6.10;;;1.60;99.90;;;;;;5013311;28;20246;-67
2022/12/09 02:45:37;;;;;;;11.97;5.70;;;1.70;99.90;;;;;;5039433;28;20687;-67
2022/12/09 02:48:05;;;;;;;19.33;6.60;;;1.60;99.90;;;;;;5044381;28;20246;-67
2022/12/09 02:50:37;;;;;;;11.70;6.03;;;1.60;99.90;;;;;;5032958;28;20682;-67
2022/12/09 02:53:08;;;;;;;11.93;6.07;;;1.60;99.90;;;;;;5042653;28;20208;-67
2022/12/09 02:55:36;;;;;;;12.83;6.57;;;1.60;99.90;;;;;;5015196;28;21348;-67
2022/12/09 02:58:03;;;;;;;10.73;6.87;;;1.60;99.90;;;;;;5011064;28;20227;-67
2022/12/09 03:00:31;;;;;;;10.93;6.27;;;1.60;99.90;;;;;;5039998;28;20199;-67
2022/12/09 03:03:01;;;;;;;9.50;6.10;;;1.60;99.90;;;;;;5037811;28;20248;-67
2022/12/09 03:05:41;;;;;;;13.70;7.07;;;1.50;99.90;;;;;;5041547;28;20195;-67
2022/12/09 03:08:15;;;;;;;10.33;6.87;;;1.60;99.90;;;;;;5044168;28;20515;-67
2022/12/09 03:10:52;;;;;;;11.90;6.70;;;1.60;99.90;;;;;;5017454;28;21000;-67
2022/12/09 03:13:32;;;;;;;12.43;6.67;;;1.60;99.90;;;;;;5047769;28;20216;-67
2022/12/09 03:16:07;;;;;;;14.20;7.40;;;1.90;99.90;;;;;;5031531;28;20213;-67
2022/12/09 03:18:38;;;;;;;12.33;7.77;;;1.60;99.90;;;;;;5038941;28;20236;-67
2022/12/09 03:21:07;;;;;;;10.20;7.43;;;1.70;99.90;;;;;;5039145;28;20231;-67
2022/12/09 03:23:36;;;;;;;15.67;8.37;;;1.60;99.90;;;;;;5032502;28;20219;-67
2022/12/09 03:26:05;;;;;;;14.13;7.13;;;1.60;99.90;;;;;;5024838;28;20576;-67
2022/12/09 03:28:38;;;;;;;12.13;7.57;;;1.60;99.90;;;;;;5019369;28;20673;-68
2022/12/09 03:31:08;;;;;;;14.27;9.07;;;1.70;99.90;;;;;;5041549;28;20208;-67
2022/12/09 03:33:35;;;;;;;11.93;7.83;;;1.60;99.90;;;;;;5041697;28;20199;-67
2022/12/09 03:36:06;;;;;;;11.17;7.10;;;1.60;99.90;;;;;;5042947;28;20210;-67
2022/12/09 03:38:37;;;;;;;11.03;7.17;;;1.70;99.90;;;;;;5032830;28;20232;-67
2022/12/09 03:41:25;;;;;;;12.23;7.10;;;1.80;99.90;;;;;;5044780;28;20205;-67
2022/12/09 03:43:55;;;;;;;14.20;8.40;;;1.80;99.90;;;;;;5023779;28;20955;-67
2022/12/09 03:46:23;;;;;;;14.60;7.67;;;1.80;99.90;;;;;;5008261;28;20208;-66
2022/12/09 03:48:49;;;;;;;11.67;7.53;;;1.70;99.90;;;;;;5034861;28;20204;-67
2022/12/09 03:51:24;;;;;;;11.93;6.73;;;1.70;99.90;;;;;;5039600;28;20782;-67
2022/12/09 03:53:58;;;;;;;11.93;7.47;;;1.70;99.90;;;;;;5032784;28;20226;-67
2022/12/09 03:56:28;;;;;;;13.90;8.67;;;1.70;99.90;;;;;;5039502;28;20877;-67
2022/12/09 03:58:58;;;;;;;15.47;9.10;;;1.60;99.90;;;;;;5033139;28;20228;-67
2022/12/09 04:01:26;;;;;;;15.33;8.60;;;1.70;99.90;;;;;;5012390;28;20219;-67
2022/12/09 04:03:56;;;;;;;19.23;9.27;;;1.70;99.90;;;;;;5037654;28;20215;-67
2022/12/09 04:06:25;;;;;;;15.93;9.17;;;1.70;99.90;;;;;;5040409;28;20204;-67
2022/12/09 04:08:52;;;;;;;11.87;8.37;;;1.60;99.90;;;;;;5041047;28;20213;-67
2022/12/09 04:11:19;;;;;;;15.00;9.00;;;1.60;99.90;;;;;;5039333;28;20577;-68
2022/12/09 04:13:46;;;;;;;23.80;9.87;;;1.60;99.90;;;;;;5022619;28;20202;-67
2022/12/09 04:16:12;;;;;;;18.67;9.97;;;1.60;99.90;;;;;;5017581;28;20198;-67
2022/12/09 04:18:39;;;;;;;15.60;9.17;;;1.70;99.90;;;;;;5045754;28;20244;-67
2022/12/09 04:21:07;;;;;;;16.13;8.73;;;1.70;99.90;;;;;;5037706;28;20226;-67
2022/12/09 04:23:36;;;;;;;14.17;8.93;;;1.60;99.90;;;;;;5049031;28;22105;-67
2022/12/09 04:26:03;;;;;;;16.97;9.43;;;1.60;99.90;;;;;;5033282;28;20571;-67
2022/12/09 04:28:30;;;;;;;19.27;9.43;;;1.60;99.90;;;;;;5014460;28;20579;-68
2022/12/09 04:30:56;;;;;;;14.43;9.17;;;1.60;99.90;;;;;;5014010;28;20216;-67
2022/12/09 04:33:23;;;;;;;15.83;8.80;;;1.70;99.90;;;;;;5032067;28;21366;-67
2022/12/09 04:35:50;;;;;;;15.17;9.57;;;1.70;99.90;;;;;;5037601;28;20211;-67
2022/12/09 04:38:17;;;;;;;18.03;10.20;;;1.70;99.90;;;;;;5042429;28;20224;-68
2022/12/09 04:40:45;;;;;;;21.03;10.40;;;1.80;99.90;;;;;;5040366;28;20209;-67
2022/12/09 04:43:12;;;;;;;17.03;9.83;;;1.70;99.90;;;;;;5037033;28;20214;-67
2022/12/09 04:45:39;;;;;;;20.03;9.17;;;1.70;99.90;;;;;;5026803;28;20319;-67
2022/12/09 04:48:06;;;;;;;19.17;9.90;;;1.70;99.90;;;;;;5013431;28;20211;-67
2022/12/09 04:50:33;;;;;;;16.13;10.30;;;1.80;99.90;;;;;;5027861;28;21237;-67
2022/12/09 04:52:59;;;;;;;18.43;9.90;;;1.70;99.90;;;;;;5043306;28;20545;-65
2022/12/09 04:55:26;;;;;;;17.00;9.73;;;1.70;99.90;;;;;;5040104;28;20772;-66
2022/12/09 04:57:54;;;;;;;18.10;9.87;;;1.80;99.90;;;;;;5022450;28;20221;-66
2022/12/09 05:00:22;;;;;;;19.00;11.10;;;1.80;99.90;;;;;;4999307;28;20873;-66
2022/12/09 05:02:48;;;;;;;13.60;8.73;;;1.70;99.90;;;;;;5009346;28;20208;-66
2022/12/09 05:05:15;;;;;;;13.67;8.63;;;1.80;99.90;;;;;;5035063;28;20208;-66
2022/12/09 05:07:43;;;;;;;18.13;9.00;;;1.80;99.90;;;;;;5021871;28;20298;-65
2022/12/09 05:10:10;;;;;;;15.60;8.90;;;1.80;99.90;;;;;;5039996;28;21229;-66
2022/12/09 05:12:37;;;;;;;14.37;9.40;;;1.80;99.90;;;;;;5029261;28;20208;-65
2022/12/09 05:15:06;;;;;;;15.77;9.10;;;1.90;99.90;;;;;;5024381;28;20212;-66
2022/12/09 05:17:33;;;;;;;19.00;9.60;;;1.80;99.90;;;;;;5034166;28;20222;-67
2022/12/09 05:20:00;;;;;;;18.27;9.43;;;1.80;99.90;;;;;;5012720;28;20251;-66
2022/12/09 05:22:27;;;;;;;13.97;9.47;;;1.80;99.90;;;;;;5030967;28;20231;-66
2022/12/09 05:24:53;;;;;;;15.47;9.63;;;1.80;99.90;;;;;;5033070;28;20698;-66
2022/12/09 05:27:20;;;;;;;19.93;8.87;;;1.70;99.90;;;;;;5024308;28;20209;-67
2022/12/09 05:29:47;;;;;;;14.37;9.23;;;1.80;99.90;;;;;;5035222;28;20202;-66
2022/12/09 05:32:15;;;;;;;16.00;10.00;;;1.80;99.90;;;;;;5020323;28;20236;-67
2022/12/09 05:34:42;;;;;;;15.87;10.07;;;1.80;99.90;;;;;;5012869;28;20267;-67
2022/12/09 05:37:13;;;;;;;19.67;10.43;;;1.80;99.90;;;;;;5002438;28;20686;-67
2022/12/09 05:39:39;;;;;;;13.03;8.67;;;1.80;99.90;;;;;;5034916;28;20248;-67
2022/12/09 05:42:06;;;;;;;13.93;9.00;;;1.70;99.90;;;;;;5034561;28;20199;-67
2022/12/09 05:44:33;;;;;;;13.50;8.20;;;1.70;99.90;;;;;;5030389;28;20211;-66
2022/12/09 05:47:00;;;;;;;15.03;8.97;;;1.70;99.90;;;;;;5019236;28;20205;-66
2022/12/09 05:49:29;;;;;;;14.67;9.00;;;1.70;99.90;;;;;;5007562;28;20227;-66
2022/12/09 05:51:56;;;;;;;19.37;8.63;;;1.70;99.90;;;;;;5034658;28;20216;-66
2022/12/09 05:54:22;;;;;;;14.47;8.80;;;1.60;99.90;;;;;;5018269;28;20228;-67
2022/12/09 05:56:49;;;;;;;14.67;9.27;;;1.50;99.90;;;;;;5036855;28;20231;-66
2022/12/09 05:59:16;;;;;;;13.83;8.57;;;1.50;99.90;;;;;;5028871;28;20237;-66
2022/12/09 06:01:43;;;;;;;12.37;7.97;;;1.50;99.90;;;;;;5043623;28;20223;-66
2022/12/09 06:04:09;;;;;;;13.17;8.07;;;1.50;99.90;;;;;;4992502;28;20224;-65
2022/12/09 06:06:38;;;;;;;13.87;8.00;;;1.40;99.90;;;;;;5037366;28;20233;-67
2022/12/09 06:09:07;;;;;;;16.30;8.13;;;1.40;99.90;;;;;;5023506;28;25423;-66
2022/12/09 06:11:34;;;;;;;13.17;8.03;;;1.40;99.90;;;;;;5004490;28;20721;-66
2022/12/09 06:14:00;;;;;;;13.83;8.53;;;1.40;99.90;;;;;;5023065;28;20205;-65
2022/12/09 06:16:27;;;;;;;14.43;8.60;;;1.30;99.90;;;;;;5025376;28;20211;-66
2022/12/09 06:18:54;;;;;;;13.33;8.00;;;1.30;99.90;;;;;;4974709;28;20231;-65
2022/12/09 06:21:21;;;;;;;16.03;8.60;;;1.20;99.90;;;;;;5008032;28;20706;-65
2022/12/09 06:23:50;;;;;;;12.90;7.90;;;1.20;99.90;;;;;;5011143;28;20261;-65
2022/12/09 06:26:19;;;;;;;15.40;8.83;;;1.20;99.90;;;;;;5026255;28;20231;-66
2022/12/09 06:28:46;;;;;;;13.17;8.20;;;1.30;99.90;;;;;;5036932;28;20552;-66
2022/12/09 06:31:13;;;;;;;12.53;8.20;;;1.20;99.90;;;;;;5004710;28;20217;-65
2022/12/09 06:33:41;;;;;;;12.90;8.13;;;1.20;99.90;;;;;;5008223;28;20591;-66
2022/12/09 06:36:08;;;;;;;11.90;7.67;;;1.20;99.90;;;;;;5015353;28;20209;-65
2022/12/09 06:38:35;;;;;;;15.37;8.40;;;1.20;99.90;;;;;;5049948;28;20232;-65
2022/12/09 06:41:07;;;;;;;15.80;8.53;;;1.10;99.90;;;;;;5047614;28;20816;-65
2022/12/09 06:43:34;;;;;;;13.90;8.13;;;1.10;99.90;;;;;;5046763;28;20636;-65
2022/12/09 06:46:01;;;;;;;12.03;7.87;;;1.10;99.90;;;;;;5034532;28;20198;-65
2022/12/09 06:48:28;;;;;;;16.47;8.60;;;1.00;99.90;;;;;;5016708;28;21970;-65
2022/12/09 06:50:55;;;;;;;12.63;8.00;;;0.90;99.90;;;;;;5018792;28;20213;-65
2022/12/09 06:53:22;;;;;;;13.00;7.80;;;1.00;99.90;;;;;;5049757;28;20217;-65
2022/12/09 06:55:48;;;;;;;17.10;7.63;;;1.00;99.90;;;;;;5051035;28;20198;-65
2022/12/09 06:58:16;;;;;;;17.13;8.03;;;1.00;99.90;;;;;;5042559;28;20234;-65
2022/12/09 07:00:43;;;;;;;19.93;9.10;;;0.80;99.90;;;;;;5048402;28;20214;-65
2022/12/09 07:03:11;;;;;;;14.33;9.13;;;0.80;99.90;;;;;;5024553;28;20202;-65
2022/12/09 07:05:39;;;;;;;12.07;7.83;;;0.80;99.90;;;;;;4999453;28;20213;-65
2022/12/09 07:08:06;;;;;;;17.43;8.53;;;0.80;99.90;;;;;;5009484;28;20610;-65
2022/12/09 07:10:32;;;;;;;13.90;8.03;;;0.70;99.90;;;;;;5039178;28;21648;-65
2022/12/09 07:12:59;;;;;;;14.80;8.27;;;0.80;99.90;;;;;;5036915;28;20247;-65
2022/12/09 07:15:28;;;;;;;14.20;8.53;;;0.70;99.90;;;;;;5029399;28;20205;-65
2022/12/09 07:17:55;;;;;;;12.93;7.80;;;0.60;99.90;;;;;;5025490;28;20735;-66
2022/12/09 07:20:22;;;;;;;14.63;8.33;;;0.60;99.90;;;;;;5026191;28;20318;-66
2022/12/09 07:22:49;;;;;;;14.07;8.70;;;0.60;99.90;;;;;;5011814;28;20600;-66
2022/12/09 07:25:16;;;;;;;16.97;8.30;;;0.60;99.90;;;;;;5029593;28;20201;-66
2022/12/09 07:27:43;;;;;;;13.83;8.30;;;0.70;99.90;;;;;;5038346;28;20697;-66
2022/12/09 07:30:10;;;;;;;13.90;8.23;;;0.60;99.90;;;;;;5027537;28;20932;-66
2022/12/09 07:32:38;;;;;;;14.43;8.73;;;0.50;99.90;;;;;;5042994;28;20205;-66
2022/12/09 07:35:06;;;;;;;15.47;8.43;;;0.50;99.90;;;;;;5031657;28;21370;-66
2022/12/09 07:37:33;;;;;;;14.90;8.27;;;0.40;99.90;;;;;;5008125;28;20210;-65
2022/12/09 07:39:59;;;;;;;14.03;7.97;;;0.40;99.90;;;;;;5031716;28;20227;-65
2022/12/09 07:42:26;;;;;;;12.50;7.40;;;0.40;99.90;;;;;;5040476;28;20201;-65
2022/12/09 07:44:53;;;;;;;15.60;7.80;;;0.30;99.90;;;;;;5027428;28;20202;-65
2022/12/09 07:47:20;;;;;;;13.90;7.70;;;0.30;99.90;;;;;;5035730;28;20294;-65
2022/12/09 07:49:48;;;;;;;15.33;8.67;;;0.30;99.90;;;;;;5039520;28;20203;-65
2022/12/09 07:52:15;;;;;;;14.23;8.40;;;1.00;99.90;;;;;;5013398;28;20211;-65
2022/12/09 07:54:41;;;;;;;18.63;8.53;;;0.30;99.90;;;;;;5014388;28;20219;-66
2022/12/09 07:57:09;;;;;;;15.27;8.53;;;0.40;99.90;;;;;;5031495;28;20215;-65
2022/12/09 07:59:35;;;;;;;15.30;8.63;;;0.30;99.90;;;;;;5043783;28;20644;-65
2022/12/09 08:02:02;;;;;;;13.87;8.17;;;0.40;99.90;;;;;;5039711;28;20205;-65
2022/12/09 08:04:30;;;;;;;15.87;9.13;;;0.40;99.90;;;;;;5028136;28;20351;-65
2022/12/09 08:06:58;;;;;;;16.50;8.67;;;0.30;99.90;;;;;;5036231;28;20212;-66
2022/12/09 08:09:25;;;;;;;16.00;7.80;;;0.20;99.90;;;;;;4998494;28;20724;-65
2022/12/09 08:11:52;;;;;;;19.23;9.07;;;0.30;99.90;;;;;;5028030;28;21291;-65
2022/12/09 08:14:18;;;;;;;15.40;8.40;;;0.30;99.90;;;;;;5040587;28;20571;-65
2022/12/09 08:16:45;;;;;;;17.77;9.43;;;0.30;99.90;;;;;;5044019;28;20199;-65
2022/12/09 08:19:12;;;;;;;13.10;8.37;;;0.20;99.90;;;;;;5042205;28;21106;-65
2022/12/09 08:21:39;;;;;;;19.03;10.00;;;0.10;99.90;;;;;;5016044;28;20244;-65
2022/12/09 08:24:10;;;;;;;14.53;8.90;;;0.20;99.90;;;;;;5001508;28;20225;-65
2022/12/09 08:26:38;;;;;;;19.07;8.80;;;0.30;99.90;;;;;;5014125;28;20881;-64
2022/12/09 08:29:08;;;;;;;15.93;8.80;;;0.40;99.90;;;;;;5030152;28;20235;-64
2022/12/09 08:31:35;;;;;;;17.63;9.17;;;0.30;99.90;;;;;;5042277;28;20294;-65
2022/12/09 08:34:04;;;;;;;17.40;9.87;;;0.30;99.90;;;;;;5048358;28;20214;-65
2022/12/09 08:36:31;;;;;;;16.57;9.20;;;0.30;99.90;;;;;;5017563;28;20204;-64
2022/12/09 08:38:59;;;;;;;18.43;9.37;;;0.40;99.90;;;;;;5020858;28;20248;-65
2022/12/09 08:41:36;;;;;;;18.10;9.93;;;0.30;99.90;;;;;;5000859;28;21127;-65
2022/12/09 08:44:05;;;;;;;19.87;9.93;;;0.30;99.90;;;;;;5028762;28;21152;-64
2022/12/09 08:46:33;;;;;;;18.33;10.37;;;0.30;99.90;;;;;;5039478;28;20208;-65
2022/12/09 08:49:01;;;;;;;18.97;10.70;;;0.40;99.90;;;;;;5040012;28;20204;-64
2022/12/09 08:51:28;;;;;;;17.63;10.63;;;0.50;99.90;;;;;;5016569;28;20211;-65
2022/12/09 08:53:55;;;;;;;19.63;11.20;;;0.50;99.90;;;;;;5023644;28;20256;-65
2022/12/09 08:56:22;;;;;;;23.03;11.20;;;0.50;99.90;;;;;;5017351;28;20236;-65
2022/12/09 08:58:50;;;;;;;22.27;11.90;;;0.50;99.90;;;;;;5029359;28;20235;-65
2022/12/09 09:01:19;;;;;;;27.33;12.77;;;0.50;99.90;;;;;;5044252;28;20207;-65
2022/12/09 09:03:47;;;;;;;28.57;12.03;;;0.50;99.90;;;;;;5042719;28;20200;-65
2022/12/09 09:06:14;;;;;;;27.90;13.00;;;0.40;99.90;;;;;;5033140;28;20232;-65
2022/12/09 09:08:41;;;;;;;26.73;12.20;;;0.60;99.90;;;;;;5034098;28;20570;-65
2022/12/09 09:11:11;;;;;;;44.87;12.97;;;0.60;99.90;;;;;;4974842;28;22053;-65
2022/12/09 09:13:39;;;;;;;41.53;12.73;;;0.60;99.90;;;;;;5028088;28;20238;-65
2022/12/09 09:16:11;;;;;;;37.07;11.67;;;0.50;99.90;;;;;;5028658;28;20239;-65
2022/12/09 09:18:38;;;;;;;40.23;11.53;;;0.50;99.90;;;;;;5042373;28;20198;-65
2022/12/09 09:21:06;;;;;;;55.40;13.00;;;0.60;99.90;;;;;;5034121;28;20642;-65
2022/12/09 09:23:33;;;;;;;42.73;12.40;;;0.60;99.90;;;;;;5027049;28;20209;-65
2022/12/09 09:25:59;;;;;;;48.20;12.30;;;0.60;99.90;;;;;;5029414;28;20201;-65
2022/12/09 09:28:26;;;;;;;51.50;12.37;;;0.60;99.90;;;;;;4990887;28;20212;-65
2022/12/09 09:30:59;;;;;;;29.43;13.13;;;0.60;99.90;;;;;;5043568;28;20659;-65
2022/12/09 09:33:27;;;;;;;27.63;12.33;;;0.70;99.90;;;;;;5032753;28;20217;-65
2022/12/09 09:35:55;;;;;;;38.97;12.13;;;0.70;99.90;;;;;;5044624;28;20197;-65
2022/12/09 09:38:22;;;;;;;48.33;13.23;;;0.70;99.90;;;;;;5030674;28;20221;-65
2022/12/09 09:40:49;;;;;;;23.87;11.77;;;0.80;99.90;;;;;;5014182;28;21261;-64
2022/12/09 09:43:17;;;;;;;36.90;11.47;;;0.80;99.90;;;;;;5000002;28;20226;-65
2022/12/09 09:45:45;;;;;;;37.67;10.67;;;0.80;99.90;;;;;;5016999;28;21086;-65
2022/12/09 09:48:16;;;;;;;39.70;11.27;;;0.90;99.90;;;;;;5044144;28;20205;-64
2022/12/09 09:50:51;;;;;;;26.13;10.47;;;0.80;99.90;;;;;;5040743;28;20201;-65
2022/12/09 09:53:21;;;;;;;38.97;10.97;;;0.90;99.90;;;;;;5023390;28;20205;-65
2022/12/09 09:55:51;;;;;;;48.27;11.80;;;0.80;99.90;;;;;;5046796;28;20194;-64
2022/12/09 09:58:25;;;;;;;30.70;10.80;;;0.80;99.90;;;;;;4997774;28;20225;-65
2022/12/09 10:00:58;;;;;;;46.97;11.33;;;0.80;99.90;;;;;;5030030;28;20609;-65
2022/12/09 10:03:37;;;;;;;24.47;9.70;;;0.90;99.90;;;;;;5038397;28;20208;-65
2022/12/09 10:06:17;;;;;;;96.97;11.63;;;0.90;99.90;;;;;;5042925;28;20202;-65
2022/12/09 10:08:54;;;;;;;43.63;11.47;;;0.70;99.90;;;;;;5031109;28;21063;-65
2022/12/09 10:11:26;;;;;;;57.20;9.77;;;0.80;99.90;;;;;;5043299;28;20290;-66
2022/12/09 10:13:58;;;;;;;35.57;9.63;;;0.80;99.90;;;;;;5011471;28;20215;-64
2022/12/09 10:16:34;;;;;;;45.57;11.00;;;0.70;99.90;;;;;;5025434;28;20230;-66
2022/12/09 10:19:08;;;;;;;32.77;10.90;;;0.70;99.90;;;;;;5046619;28;20202;-65
2022/12/09 10:21:42;;;;;;;26.10;10.13;;;0.70;99.90;;;;;;5024131;28;21441;-65
2022/12/09 10:24:18;;;;;;;25.97;10.60;;;0.70;99.90;;;;;;5042375;28;20224;-65
2022/12/09 10:26:51;;;;;;;37.77;10.97;;;0.70;99.90;;;;;;5023964;28;21093;-65
2022/12/09 10:29:23;;;;;;;34.67;10.47;;;0.80;99.90;;;;;;5007487;28;20229;-65
2022/12/09 10:31:50;;;;;;;34.67;10.97;;;0.80;99.90;;;;;;5022976;28;20343;-64
2022/12/09 10:34:17;;;;;;;29.97;9.60;;;0.80;99.90;;;;;;5037274;28;20223;-64
2022/12/09 10:36:46;;;;;;;58.67;11.77;;;0.80;99.90;;;;;;5024481;28;20256;-65
2022/12/09 10:39:17;;;;;;;39.03;10.80;;;0.80;99.90;;;;;;5042919;28;20790;-64
2022/12/09 10:44:32;;;;;;;27.50;10.83;;;0.70;99.90;;;;;;4995338;28;20279;-64
2022/12/09 10:47:02;;;;;;;21.63;9.73;;;0.80;99.90;;;;;;5028940;28;20205;-65
2022/12/09 10:49:30;;;;;;;32.80;10.97;;;0.90;99.90;;;;;;5028376;28;20810;-66
2022/12/09 10:51:58;;;;;;;21.23;9.47;;;0.90;99.90;;;;;;5044207;28;20197;-64
2022/12/09 10:54:37;;;;;;;24.87;10.73;;;0.90;99.90;;;;;;5024438;28;20206;-65
2022/12/09 10:57:08;;;;;;;19.90;9.73;;;0.90;99.90;;;;;;5026644;28;20206;-65
2022/12/09 10:59:35;;;;;;;21.60;10.83;;;0.90;99.90;;;;;;5007419;28;20263;-65
2022/12/09 11:02:17;;;;;;;27.60;10.00;;;0.90;99.90;;;;;;5029314;28;20200;-65
2022/12/09 11:04:45;;;;;;;29.30;10.60;;;0.90;99.90;;;;;;5014633;28;20226;-64
2022/12/09 11:07:20;;;;;;;20.43;10.87;;;1.00;99.90;;;;;;5031112;28;20222;-64
2022/12/09 11:09:49;;;;;;;23.27;9.40;;;0.90;99.90;;;;;;5040999;28;20734;-64
2022/12/09 11:12:29;;;;;;;19.00;9.50;;;0.90;99.90;;;;;;5015824;28;20574;-64
2022/12/09 11:14:57;;;;;;;24.53;10.47;;;0.90;99.90;;;;;;5040953;28;20206;-64
2022/12/09 11:17:26;;;;;;;18.77;9.60;;;1.00;99.90;;;;;;4991481;28;20202;-64
2022/12/09 11:19:55;;;;;;;16.73;8.63;;;1.00;99.90;;;;;;5039088;28;20238;-65
2022/12/09 11:22:37;;;;;;;17.57;9.90;;;1.00;99.90;;;;;;5012756;28;20233;-65
2022/12/09 11:25:22;;;;;;;18.77;9.07;;;1.10;99.90;;;;;;5044148;28;20199;-64
2022/12/09 11:27:52;;;;;;;19.37;9.03;;;1.10;99.90;;;;;;5032200;28;20221;-65
2022/12/09 11:30:20;;;;;;;19.30;9.07;;;1.00;99.90;;;;;;5014815;28;20499;-64
2022/12/09 11:33:00;;;;;;;17.00;8.83;;;1.00;99.90;;;;;;5027864;28;20237;-64
2022/12/09 11:35:33;;;;;;;17.50;9.53;;;1.00;99.90;;;;;;5014516;28;21044;-65
2022/12/09 11:38:14;;;;;;;15.37;8.63;;;1.00;99.90;;;;;;5038999;28;20721;-65
2022/12/09 11:40:41;;;;;;;23.53;10.43;;;;;;;;;;5036587;28;20606;-65
2022/12/09 11:43:09;;;;;;;22.03;10.53;;;1.00;99.90;;;;;;5021330;28;20204;-64
2022/12/09 11:45:38;;;;;;;19.03;9.17;;;1.10;99.90;;;;;;5033544;28;20201;-64
2022/12/09 11:48:08;;;;;;;16.17;8.87;;;1.10;99.90;;;;;;5011100;28;20217;-64
2022/12/09 11:50:41;;;;;;;17.43;8.77;;;1.00;99.90;;;;;;5020441;28;20209;-64
2022/12/09 11:53:24;;;;;;;17.50;9.43;;;1.00;99.90;;;;;;5031793;28;20206;-65
2022/12/09 11:55:56;;;;;;;30.70;11.30;;;1.10;99.90;;;;;;5040711;28;20247;-65
2022/12/09 11:58:26;;;;;;;28.00;11.20;;;1.00;99.90;;;;;;5027078;28;20211;-65
2022/12/09 12:00:59;;;;;;;32.40;13.50;;;1.10;99.90;;;;;;5040414;28;20223;-65
2022/12/09 12:03:33;;;;;;;36.87;13.60;;;1.20;99.90;;;;;;5008958;28;20209;-64
2022/12/09 12:06:03;;;;;;;41.37;13.67;;;1.10;99.90;;;;;;5019918;28;20201;-64
2022/12/09 12:08:37;;;;;;;29.50;12.77;;;1.10;99.90;;;;;;5037240;28;20199;-65
2022/12/09 12:11:07;;;;;;;37.87;11.37;;;1.10;99.90;;;;;;5041781;28;20213;-65
2022/12/09 12:13:38;;;;;;;41.33;13.20;;;1.10;99.90;;;;;;5030043;28;20205;-64
2022/12/09 12:16:10;;;;;;;32.80;11.97;;;1.10;99.90;;;;;;5032960;28;20648;-65
2022/12/09 12:18:41;;;;;;;25.90;12.90;;;1.10;99.90;;;;;;5003953;28;20205;-65
2022/12/09 12:21:38;;;;;;;19.60;10.80;;;1.20;99.90;;;;;;5027600;28;20238;-64
2022/12/09 12:24:34;;;;;;;26.70;10.97;;;1.20;99.90;;;;;;5037504;28;20212;-64
2022/12/09 12:27:14;;;;;;;31.47;15.23;;;1.20;99.90;;;;;;5040193;28;20208;-65
2022/12/09 12:29:51;;;;;;;27.33;12.30;;;1.30;99.90;;;;;;5027129;28;24037;-65
2022/12/09 12:32:29;;;;;;;28.07;12.60;;;1.30;99.90;;;;;;5001381;28;20206;-65
2022/12/09 12:35:13;;;;;;;30.27;13.93;;;1.30;99.90;;;;;;5036985;28;20197;-64
2022/12/09 12:37:54;;;;;;;34.13;15.23;;;1.30;99.90;;;;;;5015599;28;20301;-64
2022/12/09 12:40:32;;;;;;;30.20;14.43;;;1.30;99.90;;;;;;5033127;28;20943;-65
2022/12/09 12:46:18;;;;;;;30.00;12.80;;;1.30;99.90;;;;;;5029582;28;20231;-64
2022/12/09 12:48:58;;;;;;;31.40;14.47;;;1.40;99.90;;;;;;5009421;28;20703;-65
2022/12/09 12:51:33;;;;;;;27.87;13.50;;;1.40;99.90;;;;;;5020277;28;20207;-65
2022/12/09 12:54:14;;;;;;;30.77;14.30;;;1.40;99.90;;;;;;5021869;28;20389;-65
2022/12/09 12:56:49;;;;;;;35.83;14.93;;;1.40;99.90;;;;;;5029838;28;21230;-65
2022/12/09 12:59:22;;;;;;;29.23;14.77;;;1.40;99.90;;;;;;5025119;28;20321;-65
2022/12/09 13:01:53;;;;;;;35.10;15.53;;;1.50;99.90;;;;;;5015258;28;20225;-65
2022/12/09 13:04:24;;;;;;;29.87;12.93;;;1.50;99.90;;;;;;4997010;28;21486;-64